createdAt,value
2022-11-12T00:01:41.968Z,15.38
2022-11-12T00:04:15.677Z,15.23
2022-11-12T00:06:49.916Z,15.12
2022-11-12T00:09:22.828Z,15.06
2022-11-12T00:11:55.672Z,15.01
2022-11-12T00:14:29.085Z,14.97
2022-11-12T00:17:01.882Z,15.13
2022-11-12T00:19:35.569Z,15.13
2022-11-12T00:22:10.335Z,15.06
2022-11-12T00:24:43.329Z,15.09
2022-11-12T00:27:17.225Z,14.89
2022-11-12T00:29:50.981Z,14.95
2022-11-12T00:32:23.875Z,15.11
2022-11-12T00:34:59.236Z,15.13
2022-11-12T00:37:35.603Z,14.96
2022-11-12T00:40:10.116Z,15.12
2022-11-12T00:42:43.819Z,15.06
2022-11-12T00:45:17.621Z,14.99
2022-11-12T00:47:51.141Z,15.00
2022-11-12T00:50:25.094Z,14.91
2022-11-12T00:52:59.368Z,14.82
2022-11-12T00:55:33.104Z,14.93
2022-11-12T00:58:05.939Z,14.86
2022-11-12T01:00:39.808Z,14.77
2022-11-12T01:03:12.700Z,14.83
2022-11-12T01:05:45.944Z,14.58
2022-11-12T01:08:20.130Z,14.70
2022-11-12T01:10:52.936Z,14.75
2022-11-12T01:13:25.772Z,14.91
2022-11-12T01:15:58.616Z,14.79
2022-11-12T01:18:32.306Z,14.50
2022-11-12T01:21:08.177Z,14.87
2022-11-12T01:23:43.770Z,14.60
2022-11-12T01:26:19.905Z,14.57
2022-11-12T01:28:53.472Z,14.72
2022-11-12T01:31:29.508Z,14.75
2022-11-12T01:34:05.160Z,14.48
2022-11-12T01:36:40.976Z,14.86
2022-11-12T01:39:16.123Z,14.79
2022-11-12T01:41:49.883Z,14.75
2022-11-12T01:44:24.892Z,14.87
2022-11-12T01:47:03.307Z,14.82
2022-11-12T01:49:47.237Z,15.03
2022-11-12T01:52:29.527Z,15.04
2022-11-12T01:55:08.603Z,14.90
2022-11-12T01:57:48.629Z,14.99
2022-11-12T02:00:21.618Z,15.01
2022-11-12T02:02:58.722Z,15.03
2022-11-12T02:05:32.725Z,15.15
2022-11-12T02:08:11.418Z,15.15
2022-11-12T02:10:46.201Z,14.94
2022-11-12T02:13:38.057Z,15.16
2022-11-12T02:16:12.823Z,14.99
2022-11-12T02:18:46.332Z,15.02
2022-11-12T02:21:22.588Z,15.00
2022-11-12T02:24:00.360Z,14.87
2022-11-12T02:26:36.503Z,15.12
2022-11-12T02:29:10.301Z,15.15
2022-11-12T02:31:43.863Z,15.06
2022-11-12T02:34:17.610Z,15.14
2022-11-12T02:36:51.830Z,15.04
2022-11-12T02:39:25.610Z,14.78
2022-11-12T02:41:59.345Z,14.83
2022-11-12T02:44:33.644Z,14.48
2022-11-12T02:47:06.633Z,14.71
2022-11-12T02:49:39.484Z,14.53
2022-11-12T02:52:14.756Z,14.59
2022-11-12T02:54:47.596Z,14.51
2022-11-12T02:57:20.431Z,14.25
2022-11-12T02:59:53.287Z,14.24
2022-11-12T03:02:26.341Z,14.30
2022-11-12T03:04:59.186Z,14.43
2022-11-12T03:07:33.355Z,14.28
2022-11-12T03:10:07.596Z,14.26
2022-11-12T03:12:40.438Z,14.40
2022-11-12T03:15:14.106Z,14.32
2022-11-12T03:17:47.062Z,14.28
2022-11-12T03:20:21.250Z,14.42
2022-11-12T03:23:01.589Z,14.20
2022-11-12T03:25:36.723Z,14.29
2022-11-12T03:28:11.980Z,14.23
2022-11-12T03:30:46.728Z,14.26
2022-11-12T03:33:20.354Z,14.06
2022-11-12T03:35:53.469Z,14.04
2022-11-12T03:38:28.258Z,14.03
2022-11-12T03:41:02.190Z,14.13
2022-11-12T03:43:35.636Z,14.02
2022-11-12T03:46:08.487Z,13.96
2022-11-12T03:48:41.284Z,13.96
2022-11-12T03:51:16.408Z,14.04
2022-11-12T03:53:51.485Z,14.02
2022-11-12T03:56:25.446Z,13.89
2022-11-12T03:58:59.001Z,13.93
2022-11-12T04:01:31.922Z,13.83
2022-11-12T04:04:05.713Z,13.79
2022-11-12T04:06:56.165Z,13.85
2022-11-12T04:09:31.218Z,13.94
2022-11-12T04:12:24.832Z,13.92
2022-11-12T04:14:56.623Z,13.82
2022-11-12T04:17:47.951Z,13.87
2022-11-12T04:20:38.621Z,13.51
2022-11-12T04:23:12.315Z,13.86
2022-11-12T04:26:04.872Z,13.87
2022-11-12T04:28:37.671Z,13.91
2022-11-12T04:31:09.479Z,13.72
2022-11-12T04:33:42.377Z,13.64
2022-11-12T04:36:16.199Z,13.54
2022-11-12T04:38:49.044Z,13.66
2022-11-12T04:41:41.402Z,13.71
2022-11-12T04:44:31.805Z,13.81
2022-11-12T04:47:04.740Z,13.63
2022-11-12T04:49:37.574Z,13.63
2022-11-12T04:52:11.363Z,13.68
2022-11-12T04:54:45.553Z,13.45
2022-11-12T04:57:21.210Z,13.55
2022-11-12T04:59:55.092Z,13.49
2022-11-12T05:02:28.707Z,13.53
2022-11-12T05:05:02.499Z,13.61
2022-11-12T05:07:36.004Z,13.52
2022-11-12T05:10:10.147Z,13.50
2022-11-12T05:12:45.495Z,13.54
2022-11-12T05:15:19.413Z,13.48
2022-11-12T05:17:52.549Z,13.55
2022-11-12T05:20:26.471Z,13.75
2022-11-12T05:23:06.690Z,13.77
2022-11-12T05:25:41.220Z,13.73
2022-11-12T05:28:15.400Z,13.74
2022-11-12T05:30:49.784Z,13.87
2022-11-12T05:33:22.793Z,13.81
2022-11-12T05:35:57.558Z,13.88
2022-11-12T05:38:31.103Z,13.94
2022-11-12T05:41:04.763Z,13.96
2022-11-12T05:43:39.033Z,13.92
2022-11-12T05:46:12.750Z,13.88
2022-11-12T05:48:46.268Z,13.89
2022-11-12T05:51:20.249Z,13.86
2022-11-12T05:53:53.756Z,13.95
2022-11-12T05:56:27.358Z,13.91
2022-11-12T05:59:02.838Z,13.95
2022-11-12T06:01:44.035Z,13.96
2022-11-12T06:04:17.753Z,14.08
2022-11-12T06:06:50.594Z,14.01
2022-11-12T06:09:23.423Z,14.01
2022-11-12T06:11:57.279Z,14.05
2022-11-12T06:14:32.051Z,14.02
2022-11-12T06:17:05.146Z,14.01
2022-11-12T06:19:37.947Z,14.00
2022-11-12T06:22:11.610Z,13.86
2022-11-12T06:24:44.413Z,13.87
2022-11-12T06:27:18.239Z,13.79
2022-11-12T06:29:52.925Z,13.54
2022-11-12T06:32:26.547Z,13.65
2022-11-12T06:35:00.126Z,13.64
2022-11-12T06:37:33.038Z,13.66
2022-11-12T06:40:07.081Z,13.72
2022-11-12T06:42:40.681Z,13.84
2022-11-12T06:45:15.786Z,13.79
2022-11-12T06:47:49.181Z,13.89
2022-11-12T06:50:22.016Z,13.89
2022-11-12T06:52:59.451Z,13.95
2022-11-12T06:55:32.939Z,13.96
2022-11-12T06:58:06.683Z,13.93
2022-11-12T07:00:41.130Z,14.09
2022-11-12T07:03:22.946Z,14.21
2022-11-12T07:05:56.579Z,14.27
2022-11-12T07:08:30.423Z,14.22
2022-11-12T07:11:04.545Z,14.49
2022-11-12T07:13:38.755Z,14.58
2022-11-12T07:16:14.140Z,14.53
2022-11-12T07:18:48.988Z,14.47
2022-11-12T07:21:23.031Z,14.51
2022-11-12T07:23:56.712Z,14.60
2022-11-12T07:26:29.574Z,14.68
2022-11-12T07:29:03.210Z,14.60
2022-11-12T07:31:38.247Z,14.55
2022-11-12T07:34:12.220Z,14.81
2022-11-12T07:36:45.900Z,14.85
2022-11-12T07:39:19.790Z,14.90
2022-11-12T07:41:53.443Z,14.96
2022-11-12T07:44:27.245Z,14.95
2022-11-12T07:47:02.335Z,14.89
2022-11-12T07:49:36.184Z,14.83
2022-11-12T07:52:10.559Z,14.93
2022-11-12T07:54:44.236Z,14.75
2022-11-12T07:57:17.138Z,14.89
2022-11-12T07:59:50.044Z,14.71
2022-11-12T08:02:24.220Z,14.66
2022-11-12T08:04:57.932Z,14.85
2022-11-12T08:07:31.563Z,14.85
2022-11-12T08:10:05.535Z,14.77
2022-11-12T08:12:38.318Z,14.86
2022-11-12T08:15:12.348Z,14.83
2022-11-12T08:17:46.598Z,14.90
2022-11-12T08:20:20.214Z,14.84
2022-11-12T08:22:53.357Z,14.49
2022-11-12T08:25:27.663Z,14.77
2022-11-12T08:28:01.414Z,14.82
2022-11-12T08:30:34.766Z,14.79
2022-11-12T08:33:08.964Z,14.87
2022-11-12T08:35:42.919Z,14.79
2022-11-12T08:38:17.468Z,14.59
2022-11-12T08:40:51.241Z,14.57
2022-11-12T08:43:24.135Z,14.51
2022-11-12T08:45:59.917Z,14.82
2022-11-12T08:48:35.864Z,15.05
2022-11-12T08:51:09.193Z,14.63
2022-11-12T08:53:41.973Z,15.04
2022-11-12T08:56:14.815Z,15.54
2022-11-12T08:58:47.665Z,15.53
2022-11-12T09:01:20.760Z,15.70
2022-11-12T09:03:54.992Z,15.72
2022-11-12T09:06:27.820Z,15.84
2022-11-12T09:09:00.701Z,16.00
2022-11-12T09:11:34.305Z,15.94
2022-11-12T09:14:07.276Z,16.22
2022-11-12T09:16:40.903Z,16.08
2022-11-12T09:19:15.279Z,16.59
2022-11-12T09:21:48.801Z,16.96
2022-11-12T09:24:21.604Z,16.92
2022-11-12T09:26:54.768Z,16.97
2022-11-12T09:29:27.632Z,17.16
2022-11-12T09:32:00.786Z,17.37
2022-11-12T09:34:35.940Z,17.73
2022-11-12T09:37:08.841Z,17.55
2022-11-12T09:39:41.662Z,17.67
2022-11-12T09:42:18.804Z,17.17
2022-11-12T09:45:00.065Z,17.50
2022-11-12T09:47:38.022Z,16.67
2022-11-12T09:50:21.385Z,16.62
2022-11-12T09:53:13.580Z,16.26
2022-11-12T09:55:49.367Z,16.15
2022-11-12T09:58:22.449Z,15.86
2022-11-12T10:00:57.761Z,15.86
2022-11-12T10:03:38.586Z,15.50
2022-11-12T10:06:19.410Z,15.65
2022-11-12T10:08:59.056Z,15.66
2022-11-12T10:12:17.146Z,15.75
2022-11-12T10:15:32.824Z,15.42
2022-11-12T10:18:10.871Z,15.42
2022-11-12T10:20:51.676Z,15.48
2022-11-12T10:23:30.623Z,15.41
2022-11-12T10:26:13.456Z,15.25
2022-11-12T10:28:49.356Z,15.09
2022-11-12T10:31:23.266Z,15.37
2022-11-12T10:34:15.588Z,15.52
2022-11-12T10:36:55.287Z,15.77
2022-11-12T10:39:35.726Z,15.73
2022-11-12T10:42:11.374Z,15.71
2022-11-12T10:44:45.293Z,15.90
2022-11-12T10:47:26.267Z,16.40
2022-11-12T10:50:16.537Z,16.76
2022-11-12T10:52:58.311Z,16.64
2022-11-12T10:55:34.532Z,16.40
2022-11-12T10:58:16.776Z,15.68
2022-11-12T11:00:55.994Z,15.44
2022-11-12T11:03:32.455Z,15.88
2022-11-12T11:06:08.300Z,15.83
2022-11-12T11:08:44.315Z,15.65
2022-11-12T11:11:25.999Z,15.44
2022-11-12T11:14:19.680Z,15.33
2022-11-12T11:16:54.871Z,15.66
2022-11-12T11:19:36.886Z,15.93
2022-11-12T11:22:31.225Z,15.85
2022-11-12T11:25:21.574Z,16.15
2022-11-12T11:28:19.819Z,16.33
2022-11-12T11:31:04.626Z,16.24
2022-11-12T11:33:46.162Z,16.16
2022-11-12T11:36:25.693Z,16.16
2022-11-12T11:39:05.237Z,16.13
2022-11-12T11:41:55.048Z,16.08
2022-11-12T11:44:41.747Z,15.98
2022-11-12T11:47:50.535Z,16.30
2022-11-12T11:50:29.254Z,16.46
2022-11-12T11:53:14.715Z,16.81
2022-11-12T11:55:55.466Z,16.33
2022-11-12T11:58:50.266Z,16.11
2022-11-12T12:01:32.373Z,15.71
2022-11-12T12:04:25.390Z,15.70
2022-11-12T12:07:15.271Z,15.58
2022-11-12T12:09:56.793Z,15.90
2022-11-12T12:12:46.514Z,15.82
2022-11-12T12:15:48.784Z,16.06
2022-11-12T12:18:35.493Z,15.82
2022-11-12T12:21:14.563Z,15.59
2022-11-12T12:23:51.447Z,15.71
2022-11-12T12:26:28.065Z,15.99
2022-11-12T12:29:07.911Z,16.27
2022-11-12T12:31:47.178Z,16.76
2022-11-12T12:34:28.366Z,16.92
2022-11-12T12:37:09.383Z,16.67
2022-11-12T12:39:50.979Z,17.07
2022-11-12T12:42:32.262Z,17.56
2022-11-12T12:45:25.931Z,18.06
2022-11-12T12:48:00.624Z,18.07
2022-11-12T12:50:38.139Z,17.69
2022-11-12T12:53:20.408Z,17.13
2022-11-12T12:55:54.547Z,16.83
2022-11-12T12:58:30.366Z,16.60
2022-11-12T13:01:08.289Z,16.55
2022-11-12T13:03:54.645Z,16.55
2022-11-12T13:06:33.161Z,16.52
2022-11-12T13:09:09.574Z,16.50
2022-11-12T13:12:08.267Z,16.23
2022-11-12T13:15:13.966Z,16.48
2022-11-12T13:17:52.647Z,16.81
2022-11-12T13:20:42.179Z,16.97
2022-11-12T13:24:06.353Z,16.96
2022-11-12T13:26:45.634Z,17.42
2022-11-12T13:29:46.742Z,17.63
2022-11-12T13:32:43.835Z,17.72
2022-11-12T13:35:26.222Z,17.52
2022-11-12T13:38:03.083Z,17.35
2022-11-12T13:40:45.240Z,17.24
2022-11-12T13:43:27.986Z,17.44
2022-11-12T13:46:18.730Z,17.53
2022-11-12T13:48:59.849Z,17.42
2022-11-12T13:51:43.150Z,17.56
2022-11-12T13:54:37.616Z,17.46
2022-11-12T13:57:28.964Z,17.40
2022-11-12T14:00:29.063Z,16.98
2022-11-12T14:03:05.516Z,16.64
2022-11-12T14:05:39.394Z,16.50
2022-11-12T14:08:53.726Z,16.61
2022-11-12T14:11:40.130Z,17.24
2022-11-12T14:14:29.048Z,17.96
2022-11-12T14:17:22.413Z,18.30
2022-11-12T14:20:20.610Z,18.67
2022-11-12T14:22:55.819Z,18.50
2022-11-12T14:25:29.546Z,17.91
2022-11-12T14:28:03.265Z,17.49
2022-11-12T14:30:46.100Z,17.15
2022-11-12T14:33:22.529Z,16.85
2022-11-12T14:36:01.625Z,17.09
2022-11-12T14:38:40.206Z,17.24
2022-11-12T14:41:21.432Z,17.26
2022-11-12T14:44:11.558Z,17.35
2022-11-12T14:46:50.051Z,17.30
2022-11-12T14:49:29.814Z,17.39
2022-11-12T14:52:09.430Z,17.28
2022-11-12T14:54:49.687Z,17.30
2022-11-12T14:57:27.835Z,17.36
2022-11-12T15:00:01.017Z,17.15
2022-11-12T15:02:50.281Z,17.33
2022-11-12T15:05:28.979Z,17.58
2022-11-12T15:08:05.167Z,17.34
2022-11-12T15:10:40.502Z,17.15
2022-11-12T15:13:17.181Z,16.83
2022-11-12T15:15:53.736Z,16.76
2022-11-12T15:18:30.407Z,16.81
2022-11-12T15:21:14.658Z,16.78
2022-11-12T15:23:49.267Z,16.84
2022-11-12T15:26:27.551Z,16.83
2022-11-12T15:29:00.889Z,16.89
2022-11-12T15:31:49.507Z,16.79
2022-11-12T15:34:33.560Z,16.64
2022-11-12T15:37:09.611Z,16.33
2022-11-12T15:39:45.668Z,16.34
2022-11-12T15:42:25.745Z,16.22
2022-11-12T15:45:01.126Z,16.19
2022-11-12T15:47:34.119Z,16.28
2022-11-12T15:50:17.690Z,16.25
2022-11-12T15:52:52.130Z,16.22
2022-11-12T15:55:25.272Z,16.15
2022-11-12T15:57:58.111Z,15.98
2022-11-12T16:00:33.823Z,15.94
2022-11-12T16:03:16.094Z,15.98
2022-11-12T16:05:51.198Z,15.95
2022-11-12T16:08:25.004Z,15.92
2022-11-12T16:10:58.714Z,15.90
2022-11-12T16:13:35.108Z,15.88
2022-11-12T16:16:08.603Z,15.98
2022-11-12T16:18:42.420Z,15.91
2022-11-12T16:21:20.843Z,15.92
2022-11-12T16:23:55.023Z,15.85
2022-11-12T16:26:33.483Z,15.72
2022-11-12T16:29:13.644Z,15.51
2022-11-12T16:31:47.182Z,15.60
2022-11-12T16:34:20.385Z,15.61
2022-11-12T16:36:55.599Z,15.54
2022-11-12T16:39:28.691Z,15.59
2022-11-12T16:42:01.881Z,15.61
2022-11-12T16:44:35.612Z,15.72
2022-11-12T16:47:12.088Z,15.86
2022-11-12T16:49:45.790Z,15.99
2022-11-12T16:52:20.168Z,16.05
2022-11-12T16:54:53.259Z,15.93
2022-11-12T16:57:26.083Z,16.15
2022-11-12T16:59:59.884Z,16.27
2022-11-12T17:02:33.614Z,16.41
2022-11-12T17:05:09.434Z,16.29
2022-11-12T17:07:43.813Z,16.46
2022-11-12T17:10:23.549Z,16.50
2022-11-12T17:12:56.369Z,16.44
2022-11-12T17:15:30.129Z,16.49
2022-11-12T17:18:03.747Z,16.35
2022-11-12T17:20:37.356Z,16.22
2022-11-12T17:23:12.391Z,16.23
2022-11-12T17:25:45.722Z,16.23
2022-11-12T17:28:18.545Z,16.35
2022-11-12T17:30:51.460Z,16.36
2022-11-12T17:33:24.434Z,16.32
2022-11-12T17:36:03.149Z,16.27
2022-11-12T17:38:37.975Z,16.40
2022-11-12T17:41:11.835Z,16.28
2022-11-12T17:43:44.646Z,16.42
2022-11-12T17:46:17.458Z,16.44
2022-11-12T17:48:51.212Z,16.15
2022-11-12T17:51:27.031Z,16.38
2022-11-12T17:54:01.257Z,16.44
2022-11-12T17:56:37.070Z,16.36
2022-11-12T17:59:10.822Z,16.33
2022-11-12T18:01:43.681Z,16.28
2022-11-12T18:04:17.312Z,16.30
2022-11-12T18:06:50.333Z,16.44
2022-11-12T18:09:24.633Z,16.68
2022-11-12T18:11:59.139Z,16.55
2022-11-12T18:14:33.075Z,16.70
2022-11-12T18:17:05.898Z,16.78
2022-11-12T18:19:38.675Z,16.58
2022-11-12T18:22:13.006Z,16.74
2022-11-12T18:24:48.551Z,16.73
2022-11-12T18:27:22.265Z,16.77
2022-11-12T18:29:55.705Z,16.65
2022-11-12T18:32:29.321Z,16.81
2022-11-12T18:35:02.863Z,16.54
2022-11-12T18:37:36.610Z,16.61
2022-11-12T18:40:11.614Z,16.49
2022-11-12T18:42:45.413Z,16.57
2022-11-12T18:45:19.088Z,16.69
2022-11-12T18:47:51.942Z,16.50
2022-11-12T18:50:24.819Z,16.53
2022-11-12T18:52:57.633Z,16.71
2022-11-12T18:55:31.806Z,16.72
2022-11-12T18:58:05.497Z,16.55
2022-11-12T19:00:38.444Z,16.42
2022-11-12T19:03:12.163Z,16.38
2022-11-12T19:05:45.737Z,16.37
2022-11-12T19:08:19.935Z,16.56
2022-11-12T19:10:59.638Z,16.67
2022-11-12T19:13:33.958Z,16.57
2022-11-12T19:16:11.908Z,16.62
2022-11-12T19:18:45.749Z,16.56
2022-11-12T19:21:21.266Z,16.58
2022-11-12T19:23:55.486Z,16.51
2022-11-12T19:26:29.867Z,16.52
2022-11-12T19:29:03.795Z,16.65
2022-11-12T19:31:36.904Z,16.60
2022-11-12T19:34:10.900Z,16.62
2022-11-12T19:36:44.373Z,16.69
2022-11-12T19:39:17.168Z,16.60
2022-11-12T19:41:52.244Z,16.62
2022-11-12T19:44:25.871Z,16.55
2022-11-12T19:46:59.068Z,16.65
2022-11-12T19:49:32.811Z,16.81
2022-11-12T19:52:06.607Z,16.49
2022-11-12T19:54:40.246Z,16.61
2022-11-12T19:57:16.336Z,16.72
2022-11-12T19:59:50.053Z,16.71
2022-11-12T20:02:23.597Z,16.60
2022-11-12T20:04:57.361Z,16.70
2022-11-12T20:07:30.215Z,16.67
2022-11-12T20:10:03.118Z,16.59
2022-11-12T20:12:40.338Z,16.59
2022-11-12T20:15:14.125Z,16.54
2022-11-12T20:17:47.693Z,16.79
2022-11-12T20:20:20.722Z,16.70
2022-11-12T20:22:53.531Z,16.74
2022-11-12T20:25:26.815Z,16.62
2022-11-12T20:28:01.958Z,16.66
2022-11-12T20:30:35.062Z,16.77
2022-11-12T20:33:08.687Z,16.69
2022-11-12T20:35:41.620Z,16.71
2022-11-12T20:38:14.686Z,16.76
2022-11-12T20:40:47.543Z,16.74
2022-11-12T20:43:26.567Z,16.95
2022-11-12T20:46:03.444Z,16.70
2022-11-12T20:48:41.509Z,16.87
2022-11-12T20:51:24.345Z,16.80
2022-11-12T20:54:00.701Z,16.85
2022-11-12T20:56:35.645Z,16.88
2022-11-12T20:59:11.227Z,16.74
2022-11-12T21:01:44.481Z,16.75
2022-11-12T21:04:18.163Z,16.73
2022-11-12T21:06:51.319Z,16.73
2022-11-12T21:09:25.177Z,16.76
2022-11-12T21:11:59.152Z,16.54
2022-11-12T21:14:34.170Z,16.49
2022-11-12T21:17:07.944Z,16.39
2022-11-12T21:19:41.384Z,16.43
2022-11-12T21:22:15.550Z,16.52
2022-11-12T21:24:48.727Z,16.49
2022-11-12T21:27:22.299Z,16.55
2022-11-12T21:29:57.386Z,16.56
2022-11-12T21:32:30.252Z,16.51
2022-11-12T21:35:03.049Z,16.37
2022-11-12T21:37:36.224Z,16.42
2022-11-12T21:40:10.471Z,16.28
2022-11-12T21:42:44.262Z,16.19
2022-11-12T21:45:19.430Z,16.31
2022-11-12T21:47:53.223Z,16.13
2022-11-12T21:50:26.800Z,16.25
2022-11-12T21:53:00.488Z,16.33
2022-11-12T21:55:34.070Z,16.23
2022-11-12T21:58:07.561Z,16.28
2022-11-12T22:00:42.975Z,16.18
2022-11-12T22:03:16.772Z,16.25
2022-11-12T22:05:50.464Z,16.34
2022-11-12T22:08:24.123Z,16.44
2022-11-12T22:11:02.542Z,16.46
2022-11-12T22:13:36.481Z,16.49
2022-11-12T22:16:12.525Z,16.30
2022-11-12T22:18:48.090Z,16.33
2022-11-12T22:21:23.701Z,16.32
2022-11-12T22:23:58.436Z,16.47
2022-11-12T22:26:31.748Z,16.50
2022-11-12T22:29:06.422Z,16.43
2022-11-12T22:31:41.390Z,16.38
2022-11-12T22:34:15.345Z,16.38
2022-11-12T22:36:48.967Z,16.28
2022-11-12T22:39:22.669Z,16.30
2022-11-12T22:41:56.201Z,16.22
2022-11-12T22:44:30.261Z,16.23
2022-11-12T22:47:05.322Z,16.27
2022-11-12T22:49:38.925Z,16.05
2022-11-12T22:52:11.834Z,16.11
2022-11-12T22:54:45.677Z,16.15
2022-11-12T22:57:19.268Z,16.15
2022-11-12T22:59:52.960Z,16.13
2022-11-12T23:02:28.025Z,16.01
2022-11-12T23:05:00.929Z,16.04
2022-11-12T23:07:34.557Z,16.19
2022-11-12T23:10:09.542Z,16.21
2022-11-12T23:12:43.136Z,16.28
2022-11-12T23:15:16.962Z,16.39
2022-11-12T23:17:52.127Z,16.30
2022-11-12T23:20:25.503Z,16.61
2022-11-12T23:22:59.083Z,16.72
2022-11-12T23:25:35.301Z,16.68
2022-11-12T23:28:08.228Z,16.77
2022-11-12T23:30:41.913Z,16.59
2022-11-12T23:33:17.126Z,16.68
2022-11-12T23:35:50.858Z,16.67
2022-11-12T23:38:24.463Z,16.48
2022-11-12T23:40:57.546Z,16.48
2022-11-12T23:43:31.346Z,16.32
2022-11-12T23:46:05.505Z,16.44
2022-11-12T23:48:39.874Z,16.47
2022-11-12T23:51:15.367Z,16.57
2022-11-12T23:53:49.630Z,16.53
2022-11-12T23:56:23.438Z,16.50
2022-11-12T23:58:57.179Z,16.59
